createdAt,value
2024-02-13T00:03:37.726Z,7.38
2024-02-13T00:08:45.672Z,7.33
2024-02-13T00:13:53.422Z,7.31
2024-02-13T00:19:02.805Z,7.36
2024-02-13T00:24:12.245Z,7.34
2024-02-13T00:29:15.760Z,7.33
2024-02-13T00:34:20.983Z,7.30
2024-02-13T00:39:25.576Z,7.31
2024-02-13T00:44:29.055Z,7.29
2024-02-13T00:49:33.457Z,7.24
2024-02-13T00:54:37.119Z,7.20
2024-02-13T00:59:41.445Z,7.16
2024-02-13T01:04:45.851Z,7.08
2024-02-13T01:09:49.237Z,7.05
2024-02-13T01:14:52.824Z,7.03
2024-02-13T01:19:56.302Z,6.99
2024-02-13T01:25:00.291Z,6.94
2024-02-13T01:30:04.012Z,6.90
2024-02-13T01:35:11.736Z,6.80
2024-02-13T01:40:17.608Z,6.71
2024-02-13T01:45:22.504Z,6.62
2024-02-13T01:50:28.563Z,6.55
2024-02-13T01:55:33.215Z,6.49
2024-02-13T02:00:37.432Z,6.43
2024-02-13T02:05:40.881Z,6.36
2024-02-13T02:10:45.864Z,6.35
2024-02-13T02:15:50.206Z,6.37
2024-02-13T02:20:54.023Z,6.38
2024-02-13T02:25:57.515Z,6.40
2024-02-13T02:31:01.146Z,6.40
2024-02-13T02:36:05.384Z,6.36
2024-02-13T02:41:08.900Z,6.38
2024-02-13T02:46:13.961Z,6.37
2024-02-13T02:51:17.887Z,6.41
2024-02-13T02:56:22.330Z,6.46
2024-02-13T03:01:26.010Z,6.43
2024-02-13T03:06:30.535Z,6.45
2024-02-13T03:11:35.498Z,6.39
2024-02-13T03:16:40.403Z,6.44
2024-02-13T03:21:44.080Z,6.49
2024-02-13T03:26:47.476Z,6.54
2024-02-13T03:31:50.950Z,6.58
2024-02-13T03:36:54.396Z,6.60
2024-02-13T03:41:57.973Z,6.60
2024-02-13T03:47:01.308Z,6.67
2024-02-13T03:52:05.285Z,6.68
2024-02-13T03:57:08.693Z,6.77
2024-02-13T04:02:12.512Z,6.70
2024-02-13T04:07:16.944Z,6.63
2024-02-13T04:12:22.744Z,6.48
2024-02-13T04:17:26.672Z,6.37
2024-02-13T04:22:30.093Z,6.31
2024-02-13T04:27:33.268Z,6.26
2024-02-13T04:32:39.900Z,6.24
2024-02-13T04:37:45.006Z,6.20
2024-02-13T04:42:49.582Z,6.35
2024-02-13T04:47:53.186Z,6.48
2024-02-13T04:52:56.769Z,6.35
2024-02-13T04:58:00.615Z,5.97
2024-02-13T05:03:17.715Z,5.59
2024-02-13T05:08:21.540Z,5.27
2024-02-13T05:13:25.238Z,5.07
2024-02-13T05:18:29.030Z,4.96
2024-02-13T05:23:32.572Z,4.93
2024-02-13T05:28:39.111Z,5.18
2024-02-13T05:33:44.051Z,5.51
2024-02-13T05:38:49.583Z,5.72
2024-02-13T05:43:54.048Z,5.80
2024-02-13T05:49:00.651Z,5.92
2024-02-13T05:54:06.353Z,5.96
2024-02-13T05:59:10.464Z,5.91
2024-02-13T06:04:14.697Z,5.83
2024-02-13T06:09:22.558Z,5.60
2024-02-13T06:14:26.098Z,5.32
2024-02-13T06:19:29.504Z,5.09
2024-02-13T06:24:32.873Z,4.97
2024-02-13T06:29:36.398Z,4.89
2024-02-13T06:34:40.763Z,4.91
2024-02-13T06:39:44.105Z,4.95
2024-02-13T06:44:48.717Z,5.05
2024-02-13T06:49:52.839Z,5.08
2024-02-13T06:54:56.221Z,5.21
2024-02-13T07:00:05.191Z,5.39
2024-02-13T07:05:10.902Z,5.56
2024-02-13T07:10:15.336Z,5.72
2024-02-13T07:15:19.925Z,5.92
2024-02-13T07:20:27.537Z,6.09
2024-02-13T07:25:32.121Z,6.27
2024-02-13T07:30:35.691Z,6.53
2024-02-13T07:35:40.698Z,7.53
2024-02-13T07:40:45.261Z,8.58
2024-02-13T07:45:48.712Z,9.54
2024-02-13T07:50:54.954Z,10.40
2024-02-13T07:55:58.923Z,10.75
2024-02-13T08:01:02.344Z,11.03
2024-02-13T08:06:06.334Z,11.07
2024-02-13T08:11:11.376Z,11.07
2024-02-13T08:16:15.383Z,11.05
2024-02-13T08:21:19.116Z,11.05
2024-02-13T08:26:22.665Z,10.91
2024-02-13T08:31:27.007Z,11.11
2024-02-13T08:36:30.923Z,11.20
2024-02-13T08:41:34.675Z,11.09
2024-02-13T08:46:41.467Z,11.04
2024-02-13T08:51:44.991Z,11.20
2024-02-13T08:56:48.490Z,11.22
2024-02-13T09:01:52.291Z,10.99
2024-02-13T09:06:57.050Z,11.03
2024-02-13T09:12:01.182Z,11.29
2024-02-13T09:17:06.367Z,11.56
2024-02-13T09:22:15.113Z,11.63
2024-02-13T09:27:21.087Z,11.67
2024-02-13T09:32:25.265Z,11.90
2024-02-13T09:37:28.628Z,12.01
2024-02-13T09:42:32.080Z,12.21
2024-02-13T09:47:37.612Z,12.44
2024-02-13T09:52:58.489Z,12.40
2024-02-13T09:58:02.585Z,12.23
2024-02-13T10:03:07.775Z,12.28
2024-02-13T10:08:12.788Z,12.51
2024-02-13T10:13:16.787Z,12.35
2024-02-13T10:18:21.638Z,11.98
2024-02-13T10:23:26.160Z,12.29
2024-02-13T10:28:31.210Z,12.83
2024-02-13T10:33:43.076Z,13.16
2024-02-13T10:38:52.618Z,13.33
2024-02-13T10:43:57.109Z,13.28
2024-02-13T10:49:27.929Z,13.37
2024-02-13T10:54:37.329Z,13.35
2024-02-13T10:59:42.921Z,13.38
2024-02-13T11:04:49.144Z,13.46
2024-02-13T11:09:54.489Z,13.54
2024-02-13T11:15:13.156Z,13.36
2024-02-13T11:20:20.512Z,13.01
2024-02-13T11:25:28.391Z,12.74
2024-02-13T11:30:31.982Z,12.48
2024-02-13T11:35:48.543Z,12.12
2024-02-13T11:40:57.992Z,11.95
2024-02-13T11:46:05.373Z,11.99
2024-02-13T11:51:09.398Z,12.04
2024-02-13T11:56:14.356Z,12.15
2024-02-13T12:01:20.139Z,12.10
2024-02-13T12:06:25.706Z,11.67
2024-02-13T12:11:30.680Z,11.44
2024-02-13T12:16:34.661Z,11.21
2024-02-13T12:21:41.398Z,10.97
2024-02-13T12:26:45.233Z,10.88
2024-02-13T12:31:49.151Z,10.78
2024-02-13T12:36:59.239Z,10.63
2024-02-13T12:42:03.781Z,10.72
2024-02-13T12:47:09.258Z,10.74
2024-02-13T12:52:18.166Z,10.88
2024-02-13T12:57:22.004Z,10.92
2024-02-13T13:02:27.501Z,10.77
2024-02-13T13:07:33.189Z,10.64
2024-02-13T13:12:38.055Z,10.53
2024-02-13T13:17:43.048Z,10.48
2024-02-13T13:22:48.887Z,10.42
2024-02-13T13:27:53.261Z,10.25
2024-02-13T13:32:56.850Z,10.20
2024-02-13T13:38:00.446Z,10.18
2024-02-13T13:43:07.863Z,10.26
2024-02-13T13:48:17.117Z,10.28
2024-02-13T13:53:24.316Z,10.26
2024-02-13T13:58:28.257Z,10.39
2024-02-13T14:03:31.863Z,10.37
2024-02-13T14:08:39.680Z,10.21
2024-02-13T14:13:43.470Z,10.10
2024-02-13T14:18:46.922Z,9.97
2024-02-13T14:23:55.190Z,9.83
2024-02-13T14:28:58.641Z,9.70
2024-02-13T14:34:02.392Z,9.59
2024-02-13T14:39:08.260Z,9.55
2024-02-13T14:44:11.796Z,9.46
2024-02-13T14:49:15.678Z,9.39
2024-02-13T14:54:22.508Z,9.35
2024-02-13T14:59:26.412Z,9.25
2024-02-13T15:04:29.970Z,9.15
2024-02-13T15:09:35.264Z,9.09
2024-02-13T15:14:39.118Z,9.01
2024-02-13T15:19:42.649Z,8.95
2024-02-13T15:24:46.436Z,8.82
2024-02-13T15:29:51.001Z,8.68
2024-02-13T15:34:57.952Z,8.50
2024-02-13T15:40:19.962Z,8.33
2024-02-13T15:45:41.804Z,8.20
2024-02-13T15:50:47.293Z,8.12
2024-02-13T15:55:50.595Z,7.97
2024-02-13T16:00:54.187Z,7.91
2024-02-13T16:05:58.305Z,7.79
2024-02-13T16:11:01.846Z,7.63
2024-02-13T16:16:06.533Z,7.52
2024-02-13T16:21:10.113Z,7.47
2024-02-13T16:26:13.694Z,7.36
2024-02-13T16:31:21.892Z,7.25
2024-02-13T16:36:26.702Z,7.15
2024-02-13T16:41:30.154Z,7.04
2024-02-13T16:46:34.833Z,6.95
2024-02-13T16:51:39.244Z,6.92
2024-02-13T16:56:43.616Z,6.90
2024-02-13T17:01:47.075Z,6.82
2024-02-13T17:06:50.681Z,6.67
2024-02-13T17:12:01.827Z,6.58
2024-02-13T17:17:08.099Z,6.59
2024-02-13T17:22:12.426Z,6.55
2024-02-13T17:27:15.766Z,6.54
2024-02-13T17:32:19.213Z,6.46
2024-02-13T17:37:24.528Z,6.35
2024-02-13T17:42:27.747Z,6.30
2024-02-13T17:47:31.627Z,6.24
2024-02-13T17:52:35.395Z,6.24
2024-02-13T17:57:41.450Z,6.17
2024-02-13T18:02:46.045Z,6.20
2024-02-13T18:07:49.443Z,6.19
2024-02-13T18:12:58.573Z,6.16
2024-02-13T18:18:02.070Z,6.16
2024-02-13T18:23:08.621Z,6.15
2024-02-13T18:28:14.771Z,6.13
2024-02-13T18:33:18.518Z,6.13
2024-02-13T18:38:22.482Z,6.10
2024-02-13T18:43:29.376Z,6.16
2024-02-13T18:48:32.941Z,6.20
2024-02-13T18:53:36.819Z,6.26
2024-02-13T18:58:41.221Z,6.30
2024-02-13T19:03:44.804Z,6.33
2024-02-13T19:08:49.078Z,6.34
2024-02-13T19:13:52.465Z,6.26
2024-02-13T19:18:57.986Z,6.15
2024-02-13T19:24:01.703Z,5.97
2024-02-13T19:29:05.881Z,5.87
2024-02-13T19:34:09.493Z,5.69
2024-02-13T19:39:14.091Z,5.48
2024-02-13T19:44:18.671Z,5.35
2024-02-13T19:49:22.130Z,5.26
2024-02-13T19:54:25.762Z,5.05
2024-02-13T19:59:29.322Z,4.97
2024-02-13T20:04:33.208Z,4.86
2024-02-13T20:09:37.027Z,4.83
2024-02-13T20:14:40.280Z,4.80
2024-02-13T20:19:43.543Z,4.87
2024-02-13T20:24:48.607Z,4.94
2024-02-13T20:29:53.099Z,5.00
2024-02-13T20:34:57.669Z,4.99
2024-02-13T20:40:08.585Z,5.06
2024-02-13T20:45:20.749Z,4.92
2024-02-13T20:50:26.279Z,4.73
2024-02-13T20:55:29.864Z,4.64
2024-02-13T21:00:35.672Z,4.62
2024-02-13T21:05:39.507Z,4.61
2024-02-13T21:10:43.061Z,4.58
2024-02-13T21:15:46.808Z,4.59
2024-02-13T21:21:09.116Z,4.62
2024-02-13T21:26:12.630Z,4.64
2024-02-13T21:31:17.078Z,4.67
2024-02-13T21:36:20.302Z,4.66
2024-02-13T21:41:24.006Z,4.66
2024-02-13T21:46:27.248Z,4.66
2024-02-13T21:51:31.320Z,4.65
2024-02-13T21:56:34.836Z,4.65
2024-02-13T22:01:38.200Z,4.51
2024-02-13T22:06:41.743Z,4.36
2024-02-13T22:11:45.238Z,4.25
2024-02-13T22:16:50.369Z,4.18
2024-02-13T22:21:54.305Z,4.18
2024-02-13T22:26:58.683Z,4.17
2024-02-13T22:32:02.843Z,4.11
2024-02-13T22:37:07.125Z,3.95
2024-02-13T22:42:11.020Z,3.91
2024-02-13T22:47:14.445Z,3.91
2024-02-13T22:52:17.769Z,3.90
2024-02-13T22:57:20.939Z,3.93
2024-02-13T23:02:24.736Z,3.89
2024-02-13T23:07:28.834Z,3.88
2024-02-13T23:12:33.640Z,3.92
2024-02-13T23:17:37.570Z,3.83
2024-02-13T23:22:41.104Z,3.85
2024-02-13T23:27:44.758Z,3.87
2024-02-13T23:32:51.544Z,3.94
2024-02-13T23:37:55.821Z,3.96
2024-02-13T23:43:00.310Z,3.88
2024-02-13T23:48:04.613Z,3.75
2024-02-13T23:53:09.435Z,3.52
2024-02-13T23:58:13.044Z,3.34
